»·PEaware :: AAL400 KPHX-KLAS

AAL400 :: KPHX-KLAS

FLIGHT INFORMATION

Flight Status: Arrived
Operator:
American Airlines
More flights by this operator :: More flights under this callsign
Pilot: Drew L. (13237)
Aircraft: AIRBUS A321
(A321)
More flights by this aircraft type
Origin: KPHX Phoenix Sky Harbor Intl
United States
Destination: KLAS McCarran Intl
United States
More flights between these airports :: More routes between these airports
Route: +ZEPER2 RRSTA IGM TYSSN5
File this flight plan on PilotEdge
Remarks: RMK / SIMBRIEF
Altitude:
(Current/Filed)
28,000ft
Speed:
(Current/Filed)
478kts
Departed: 22-Sep-20 04:43 PM
Arrived: 22-Sep-20 05:26 PM
Distance/Time
Traveled:
221nm/0:43
Distance/Time
To Go:
Arrived

Flight Plot

Page will automatically refresh every two minutes.

Flight plan parsing failed; only flown route is shown


Map Options




Map Legend


Flown Route
Filed Route
Departure Airport
Arrival Airport
Navaid (VOR, NDB)
Fix

Horizontal Profiles

Position Reports

Time Latitude Longitude Heading Altitude Ground
Speed
22-Sep-20 16:11 33.437547 -111.998769 270 1132ft 0kts
22-Sep-20 16:12 33.437547 -111.998769 270 1132ft 0kts
22-Sep-20 16:13 33.437547 -111.998769 270 1132ft 0kts
22-Sep-20 16:14 33.437547 -111.998769 270 1132ft 0kts
22-Sep-20 16:15 33.437547 -111.998769 270 1132ft 0kts
22-Sep-20 16:16 33.437547 -111.998769 270 1132ft 0kts
22-Sep-20 16:18 33.437547 -111.998769 270 1132ft 0kts
22-Sep-20 16:19 33.437547 -111.998769 270 1132ft 0kts
22-Sep-20 16:20 33.437547 -111.998769 270 1132ft 0kts
22-Sep-20 16:21 33.437547 -111.998769 270 1132ft 0kts
22-Sep-20 16:22 33.437547 -111.998769 270 1132ft 0kts
22-Sep-20 16:23 33.437547 -111.998769 270 1132ft 0kts
22-Sep-20 16:24 33.437547 -111.998769 270 1132ft 0kts
22-Sep-20 16:25 33.437547 -111.998769 270 1132ft 0kts
22-Sep-20 16:26 33.437547 -111.998769 270 1132ft 0kts
22-Sep-20 16:27 33.437547 -111.998769 270 1132ft 0kts
22-Sep-20 16:28 33.437547 -111.998769 270 1132ft 0kts
22-Sep-20 16:29 33.437547 -111.998769 270 1132ft 0kts
22-Sep-20 16:30 33.437547 -111.998769 270 1132ft 0kts
22-Sep-20 16:31 33.437547 -111.998769 270 1132ft 0kts
22-Sep-20 16:32 33.437501 -111.998157 311 1133ft 2kts
22-Sep-20 16:33 33.437253 -111.998045 0 1132ft 0kts
22-Sep-20 16:33 33.437255 -111.998045 0 1132ft 0kts
22-Sep-20 16:35 33.437255 -111.998045 0 1132ft 0kts
22-Sep-20 16:36 33.437255 -111.998045 0 1132ft 0kts
22-Sep-20 16:36 33.437327 -111.998045 0 1132ft 0kts
22-Sep-20 16:37 33.439711 -111.999108 277 1134ft 17kts
22-Sep-20 16:39 33.439734 -112.006417 269 1131ft 18kts
22-Sep-20 16:39 33.439723 -112.011755 270 1128ft 19kts
22-Sep-20 16:40 33.439745 -112.018583 269 1121ft 21kts
22-Sep-20 16:41 33.439735 -112.025916 269 1118ft 22kts
22-Sep-20 16:42 33.440834 -112.025015 90 1118ft 92kts
22-Sep-20 16:43 33.439709 -111.972423 93 3256ft 173kts
22-Sep-20 16:44 33.436558 -111.907326 92 4349ft 222kts
22-Sep-20 16:45 33.470946 -111.849390 2 5626ft 274kts
22-Sep-20 16:46 33.548743 -111.844511 2 8214ft 287kts
22-Sep-20 16:47 33.631588 -111.838273 1 10424ft 308kts
22-Sep-20 16:48 33.723371 -111.852346 333 11465ft 362kts
22-Sep-20 16:49 33.793652 -111.948352 305 12489ft 411kts
22-Sep-20 16:50 33.862297 -112.061962 305 14921ft 421kts
22-Sep-20 16:51 33.932539 -112.177654 304 17271ft 429kts
22-Sep-20 16:52 34.003904 -112.295082 305 19439ft 438kts
22-Sep-20 16:53 34.091771 -112.399645 317 21382ft 450kts
22-Sep-20 16:54 34.189651 -112.497325 316 23195ft 457kts
22-Sep-20 16:55 34.288384 -112.596802 316 24832ft 462kts
22-Sep-20 16:56 34.387340 -112.697198 315 26239ft 456kts
22-Sep-20 16:57 34.484843 -112.796503 315 26259ft 455kts
22-Sep-20 16:58 34.583067 -112.896537 314 26259ft 461kts
22-Sep-20 16:59 34.682947 -112.998706 314 26258ft 470kts
22-Sep-20 17:00 34.782484 -113.103887 308 26253ft 471kts
22-Sep-20 17:01 34.860031 -113.231454 293 26207ft 460kts
22-Sep-20 17:02 34.927960 -113.365543 300 26152ft 466kts
22-Sep-20 17:03 35.002815 -113.493072 301 25245ft 458kts
22-Sep-20 17:04 35.078274 -113.621822 301 24250ft 463kts
22-Sep-20 17:05 35.153877 -113.750938 301 23247ft 466kts
22-Sep-20 17:06 35.229510 -113.880837 301 22016ft 461kts
22-Sep-20 17:07 35.320164 -113.990313 319 19589ft 452kts
22-Sep-20 17:08 35.419160 -114.081628 319 17206ft 435kts
22-Sep-20 17:09 35.514493 -114.170474 320 15146ft 435kts
22-Sep-20 17:10 35.610841 -114.260349 320 14764ft 422kts
22-Sep-20 17:11 35.697391 -114.341275 321 12330ft 353kts
22-Sep-20 17:12 35.771632 -114.397492 337 12038ft 309kts
22-Sep-20 17:13 35.852046 -114.434650 337 12003ft 308kts
22-Sep-20 17:14 35.933191 -114.472595 337 11028ft 307kts
22-Sep-20 17:15 36.010598 -114.508869 337 10127ft 275kts
22-Sep-20 17:16 36.047155 -114.574999 279 9979ft 242kts
22-Sep-20 17:17 36.060916 -114.657539 280 9002ft 244kts
22-Sep-20 17:18 36.072954 -114.739207 270 7678ft 240kts
22-Sep-20 17:19 36.074192 -114.822521 268 6188ft 244kts
22-Sep-20 17:20 36.074160 -114.899978 267 5736ft 199kts
22-Sep-20 17:21 36.073951 -114.962632 267 4742ft 165kts
22-Sep-20 17:22 36.073779 -115.019651 266 3900ft 163kts
22-Sep-20 17:23 36.073705 -115.074241 266 3051ft 152kts
22-Sep-20 17:24 36.073722 -115.126535 267 2223ft 151kts
22-Sep-20 17:25 36.075134 -115.146437 337 2187ft 12kts

Navigation Log

Ident Type
Flight plan parsing failed, navigation log unavailable